Time;durP1;ratioP1;P1;durP2;ratioP2;P2;SDS_P1;SDS_P2;PMS_P1;PMS_P2;Temp;Humidity;BMP_temperature;BMP_pressure;BME280_temperature;BME280_humidity;BME280_pressure;Samples;Min_cycle;Max_cycle;Signal;HPM_P1;HPM_P2
2022/07/30 00:01:50;;;;;;;1.10;0.80;;;;;;;22.43;74.52;100952.88;4994809;28;20038;-67
2022/07/30 00:04:16;;;;;;;1.45;0.70;;;;;;;22.47;73.76;100950.03;4995106;28;20034;-67
2022/07/30 00:06:42;;;;;;;0.73;0.70;;;;;;;22.36;74.44;100956.53;4990927;28;20558;-67
2022/07/30 00:09:08;;;;;;;1.10;0.80;;;;;;;22.39;74.57;100946.69;4975624;28;20126;-67
2022/07/30 00:11:33;;;;;;;1.98;0.80;;;;;;;22.36;74.25;100944.78;4975761;28;20046;-67
2022/07/30 00:14:00;;;;;;;0.93;0.82;;;;;;;22.34;74.61;100950.69;4975398;28;20034;-66
2022/07/30 00:16:26;;;;;;;1.17;0.68;;;;;;;22.26;74.69;100943.81;4978787;28;20034;-67
2022/07/30 00:18:51;;;;;;;1.02;0.82;;;;;;;22.29;74.83;100936.72;4995044;28;20122;-67
2022/07/30 00:21:17;;;;;;;1.45;0.77;;;;;;;22.27;74.79;100933.63;4994430;28;20403;-67
2022/07/30 00:23:42;;;;;;;1.15;1.05;;;;;;;22.23;74.71;100939.19;4994872;28;20046;-67
2022/07/30 00:26:08;;;;;;;1.08;0.93;;;;;;;22.25;74.77;100930.53;4993151;28;20032;-67
2022/07/30 00:28:33;;;;;;;1.05;0.70;;;;;;;22.18;74.59;100936.19;4994914;28;20026;-67
2022/07/30 00:31:00;;;;;;;0.75;0.60;;;;;;;22.13;74.95;100922.97;4993136;28;20073;-67
2022/07/30 00:33:26;;;;;;;1.92;0.70;;;;;;;22.08;75.29;100927.00;5009273;28;20033;-67
2022/07/30 00:35:52;;;;;;;1.30;0.60;;;;;;;22.09;75.25;100927.75;4992361;28;20034;-67
2022/07/30 00:38:17;;;;;;;0.80;0.63;;;;;;;22.05;75.49;100933.34;5009559;28;20434;-67
2022/07/30 00:40:45;;;;;;;1.05;0.95;;;;;;;21.96;76.26;100924.13;4993218;28;20022;-67
2022/07/30 00:43:15;;;;;;;0.68;0.52;;;;;;;21.85;76.91;100934.56;4978317;28;20395;-67
2022/07/30 00:45:42;;;;;;;0.90;0.80;;;;;;;21.78;77.19;100934.69;4972015;28;20054;-67
2022/07/30 00:48:09;;;;;;;1.38;0.60;;;;;;;21.77;77.19;100939.41;4973598;28;20031;-67
2022/07/30 00:50:34;;;;;;;0.82;0.70;;;;;;;21.67;77.71;100939.63;4975696;28;20146;-67
2022/07/30 00:53:00;;;;;;;1.10;0.80;;;;;;;21.63;77.84;100938.91;4993042;28;20125;-67
2022/07/30 00:55:26;;;;;;;0.75;0.75;;;;;;;21.46;79.13;100933.38;4993279;28;20037;-67
2022/07/30 00:57:51;;;;;;;2.42;0.90;;;;;;;21.35;79.20;100943.00;4994235;28;20095;-67
2022/07/30 01:00:17;;;;;;;4.05;1.10;;;;;;;21.33;79.86;100937.19;4992042;28;20058;-67
2022/07/30 01:02:43;;;;;;;0.63;0.60;;;;;;;21.32;79.53;100935.63;5009009;28;20042;-67
2022/07/30 01:05:10;;;;;;;1.60;0.90;;;;;;;21.36;79.46;100942.59;4991978;28;20506;-67
2022/07/30 01:07:36;;;;;;;2.00;1.83;;;;;;;21.39;79.28;100936.25;4991299;28;20467;-67
2022/07/30 01:10:01;;;;;;;1.95;0.90;;;;;;;21.34;79.85;100944.97;4974184;28;20069;-67
2022/07/30 01:12:27;;;;;;;1.58;0.90;;;;;;;21.39;79.60;100939.00;4989595;28;20039;-67
2022/07/30 01:14:58;;;;;;;1.38;0.80;;;;;;;21.31;80.37;100948.53;4988467;28;20042;-67
2022/07/30 01:17:24;;;;;;;1.10;0.80;;;;;;;21.27;80.32;100944.34;4991387;28;20096;-67
2022/07/30 01:19:54;;;;;;;1.25;0.77;;;;;;;21.27;79.80;100928.66;4992384;28;20038;-67
2022/07/30 01:22:38;;;;;;;1.45;0.93;;;;;;;21.31;80.24;100925.88;4992459;28;20031;-67
2022/07/30 01:25:14;;;;;;;0.75;0.68;;;;;;;21.30;80.49;100933.31;4974374;28;20042;-67
2022/07/30 01:27:44;;;;;;;1.50;1.00;;;;;;;21.33;80.24;100926.22;4988955;28;20038;-67
2022/07/30 01:30:12;;;;;;;0.90;0.70;;;;;;;21.24;80.18;100926.75;4988768;28;20061;-67
2022/07/30 01:32:40;;;;;;;1.00;0.90;;;;;;;21.32;79.91;100925.44;4981109;28;20503;-67
2022/07/30 01:35:08;;;;;;;1.30;1.00;;;;;;;21.26;80.17;100921.63;4992889;28;20054;-67
2022/07/30 01:37:35;;;;;;;1.67;0.77;;;;;;;21.14;80.60;100925.00;5008209;28;20046;-67
2022/07/30 01:40:02;;;;;;;1.15;0.90;;;;;;;21.25;80.41;100933.03;4991964;28;20023;-67
2022/07/30 01:42:29;;;;;;;2.67;1.15;;;;;;;21.34;79.41;100919.53;4976345;28;20533;-67
2022/07/30 01:44:57;;;;;;;1.50;0.80;;;;;;;21.31;79.53;100921.13;4987938;28;20038;-67
2022/07/30 01:47:24;;;;;;;1.77;0.95;;;;;;;21.16;80.67;100924.56;4986654;28;20035;-67
2022/07/30 01:49:53;;;;;;;1.10;0.93;;;;;;;21.12;80.98;100921.88;5008399;28;20034;-67
2022/07/30 01:52:21;;;;;;;1.20;1.10;;;;;;;21.13;81.12;100920.72;4991949;28;20034;-67
2022/07/30 01:54:50;;;;;;;0.80;0.80;;;;;;;21.03;81.55;100921.69;5007028;28;20034;-67
2022/07/30 01:57:18;;;;;;;1.17;0.70;;;;;;;21.04;81.86;100915.00;5007194;28;20030;-67
2022/07/30 01:59:49;;;;;;;1.02;0.93;;;;;;;21.02;81.91;100920.13;5008116;28;20125;-67
2022/07/30 02:02:14;;;;;;;2.53;1.33;;;;;;;20.99;82.11;100909.97;5007943;28;20033;-67
2022/07/30 02:04:40;;;;;;;4.60;1.00;;;;;;;20.97;82.48;100917.06;5007024;28;20030;-67
2022/07/30 02:07:17;;;;;;;0.98;0.88;;;;;;;20.97;82.39;100917.06;5002674;28;20035;-67
2022/07/30 02:09:51;;;;;;;0.82;0.77;;;;;;;21.01;81.93;100909.59;4988398;28;20508;-67
2022/07/30 02:12:30;;;;;;;0.95;0.80;;;;;;;20.95;82.49;100917.47;4973100;28;20033;-67
2022/07/30 02:15:14;;;;;;;1.77;1.02;;;;;;;20.91;82.93;100916.78;5006379;28;20129;-67
2022/07/30 02:17:46;;;;;;;1.38;1.23;;;;;;;20.93;83.03;100919.09;4996283;23;20051;-70
2022/07/30 02:20:13;;;;;;;2.45;1.20;;;;;;;20.89;83.38;100910.94;4989303;28;20074;-70
2022/07/30 02:22:41;;;;;;;3.17;0.95;;;;;;;20.87;83.70;100918.00;4991433;28;20038;-72
2022/07/30 02:25:09;;;;;;;1.45;0.80;;;;;;;20.81;84.31;100916.97;4990569;28;20037;-73
2022/07/30 02:27:39;;;;;;;1.33;0.98;;;;;;;20.87;84.02;100920.75;4971580;28;20098;-73
2022/07/30 02:30:06;;;;;;;1.13;1.02;;;;;;;20.87;84.55;100921.53;4968466;28;20488;-72
2022/07/30 02:32:39;;;;;;;1.20;1.05;;;;;;;20.99;84.12;100914.69;4968676;28;20027;-72
2022/07/30 02:35:18;;;;;;;3.65;1.00;;;;;;;21.05;84.01;100913.81;4982169;28;20042;-71
2022/07/30 02:37:47;;;;;;;1.45;0.90;;;;;;;20.97;85.22;100920.59;4953810;28;20078;-72
2022/07/30 02:40:15;;;;;;;2.60;0.90;;;;;;;21.00;85.19;100916.25;4952381;28;20027;-71
2022/07/30 02:42:44;;;;;;;1.65;1.00;;;;;;;20.98;85.32;100924.84;4953513;28;20634;-72
2022/07/30 02:45:14;;;;;;;2.05;1.20;;;;;;;20.97;85.80;100923.31;4973967;28;20035;-71
2022/07/30 02:47:41;;;;;;;1.48;1.10;;;;;;;20.97;85.73;100917.84;4971571;28;20049;-72
2022/07/30 02:50:09;;;;;;;1.40;1.10;;;;;;;20.90;86.59;100928.94;4972710;28;20387;-71
2022/07/30 02:52:40;;;;;;;0.93;0.90;;;;;;;20.92;86.84;100934.78;4971617;28;20041;-72
2022/07/30 02:55:08;;;;;;;2.30;1.02;;;;;;;20.93;86.17;100935.53;4966904;28;20384;-71
2022/07/30 02:57:35;;;;;;;1.27;1.13;;;;;;;20.95;86.35;100935.88;4967871;28;20615;-72
2022/07/30 03:00:03;;;;;;;1.10;0.88;;;;;;;20.90;86.91;100941.84;4967599;28;20039;-69
2022/07/30 03:02:29;;;;;;;1.60;0.98;;;;;;;20.91;86.87;100933.19;4968210;28;20361;-68
2022/07/30 03:04:57;;;;;;;1.65;1.17;;;;;;;20.96;86.75;100938.22;4967846;28;20075;-69
2022/07/30 03:07:24;;;;;;;1.13;1.02;;;;;;;20.94;86.61;100928.88;4952630;28;20488;-70
2022/07/30 03:09:53;;;;;;;1.38;1.00;;;;;;;20.99;86.41;100926.41;4968063;28;20472;-70
2022/07/30 03:12:21;;;;;;;2.63;1.10;;;;;;;21.04;85.97;100939.66;4981294;28;20052;-70
2022/07/30 03:14:46;;;;;;;3.25;1.02;;;;;;;21.00;86.17;100929.94;4970065;28;20046;-70
2022/07/30 03:17:15;;;;;;;2.28;0.98;;;;;;;20.93;86.26;100927.31;4970864;28;20026;-70
2022/07/30 03:19:44;;;;;;;1.65;1.10;;;;;;;20.97;85.99;100934.28;4972037;28;20074;-70
2022/07/30 03:22:13;;;;;;;3.60;1.33;;;;;;;21.01;86.31;100931.50;4987305;28;20090;-70
2022/07/30 03:24:42;;;;;;;2.40;1.13;;;;;;;20.98;86.13;100926.84;4970099;28;20598;-71
2022/07/30 03:27:08;;;;;;;1.13;0.98;;;;;;;20.97;86.26;100928.78;4986891;28;20047;-71
2022/07/30 03:29:36;;;;;;;1.90;1.10;;;;;;;20.92;86.54;100926.56;4971927;28;20031;-70
2022/07/30 03:32:04;;;;;;;2.88;1.38;;;;;;;20.92;86.71;100931.25;4986603;28;20026;-71
2022/07/30 03:34:33;;;;;;;0.98;0.88;;;;;;;20.91;86.18;100933.19;4980492;28;20125;-71
2022/07/30 03:37:00;;;;;;;2.47;1.20;;;;;;;20.87;86.35;100931.72;4971537;28;20105;-71
2022/07/30 03:39:27;;;;;;;2.42;1.38;;;;;;;20.82;86.46;100930.25;4986765;28;20031;-70
2022/07/30 03:41:53;;;;;;;4.07;1.02;;;;;;;20.79;86.76;100920.09;4986521;28;20388;-70
2022/07/30 03:44:20;;;;;;;2.20;0.90;;;;;;;20.77;86.67;100927.22;4987219;28;20069;-70
2022/07/30 03:46:49;;;;;;;2.97;1.23;;;;;;;20.79;86.71;100919.34;4980932;28;20031;-70
2022/07/30 03:49:16;;;;;;;1.35;1.10;;;;;;;20.74;87.05;100911.59;4967559;28;20344;-71
2022/07/30 03:51:46;;;;;;;1.00;0.90;;;;;;;20.76;86.81;100917.44;4967485;28;20433;-71
2022/07/30 03:54:14;;;;;;;1.67;1.10;;;;;;;20.71;86.68;100915.97;4968530;28;20073;-71
2022/07/30 03:56:40;;;;;;;1.52;0.80;;;;;;;20.69;86.59;100910.13;4970307;28;20039;-70
2022/07/30 03:59:28;;;;;;;1.10;0.95;;;;;;;20.68;87.05;100914.03;4986818;28;20073;-70
2022/07/30 04:01:54;;;;;;;1.60;0.80;;;;;;;20.62;86.87;100907.50;4987066;28;20038;-70
2022/07/30 04:04:41;;;;;;;1.63;1.00;;;;;;;20.60;86.77;100907.91;4979090;28;20042;-70
2022/07/30 04:07:08;;;;;;;3.72;1.08;;;;;;;20.61;86.64;100914.19;4970412;28;20124;-70
2022/07/30 04:09:33;;;;;;;1.75;0.88;;;;;;;20.57;86.26;100913.47;4970931;28;20410;-70
2022/07/30 04:12:12;;;;;;;2.35;1.08;;;;;;;20.59;86.48;100916.56;4970461;28;20058;-70
2022/07/30 04:14:41;;;;;;;1.10;0.90;;;;;;;20.54;86.42;100919.75;4966141;28;20047;-71
2022/07/30 04:17:29;;;;;;;1.25;1.13;;;;;;;20.47;86.23;100920.66;4967058;28;20139;-71
2022/07/30 04:20:01;;;;;;;1.13;0.90;;;;;;;20.47;86.64;100919.88;4948406;28;20051;-71
2022/07/30 04:22:32;;;;;;;2.20;1.20;;;;;;;20.44;86.32;100926.94;4970704;28;20045;-70
2022/07/30 04:25:01;;;;;;;3.08;1.10;;;;;;;20.48;86.38;100924.13;4969979;28;20407;-71
2022/07/30 04:27:29;;;;;;;1.58;1.00;;;;;;;20.48;86.02;100930.41;4955654;28;20042;-71
2022/07/30 04:29:55;;;;;;;1.58;1.05;;;;;;;20.41;86.17;100933.25;4970461;28;20047;-70
2022/07/30 04:32:21;;;;;;;1.15;1.00;;;;;;;20.37;86.94;100923.53;4973056;28;20035;-70
2022/07/30 04:34:51;;;;;;;1.88;1.33;;;;;;;20.35;87.01;100929.44;4973751;28;20105;-70
2022/07/30 04:37:33;;;;;;;1.05;0.95;;;;;;;20.41;86.75;100930.53;4989511;28;20034;-71
2022/07/30 04:39:59;;;;;;;1.63;1.10;;;;;;;20.52;86.38;100928.38;4989930;28;20042;-71
2022/07/30 04:42:26;;;;;;;2.17;0.98;;;;;;;20.56;85.40;100933.78;4974594;28;20089;-71
2022/07/30 04:45:08;;;;;;;1.50;0.88;;;;;;;20.61;85.78;100938.81;4973078;28;20118;-70
2022/07/30 04:47:47;;;;;;;2.55;1.02;;;;;;;20.61;85.58;100930.59;4973826;28;20031;-71
2022/07/30 04:50:42;;;;;;;1.83;1.10;;;;;;;20.64;85.48;100932.50;4961146;28;20061;-71
2022/07/30 04:53:10;;;;;;;1.10;1.00;;;;;;;20.72;84.79;100928.44;4973692;28;20035;-71
2022/07/30 04:55:44;;;;;;;1.40;1.15;;;;;;;20.79;84.46;100938.53;4972683;28;20635;-71
2022/07/30 04:58:12;;;;;;;1.10;0.90;;;;;;;20.78;84.67;100935.00;4973380;28;20027;-70
2022/07/30 05:00:39;;;;;;;2.63;1.20;;;;;;;20.82;84.85;100932.97;4969806;28;20065;-70
2022/07/30 05:03:07;;;;;;;1.33;0.95;;;;;;;20.85;84.58;100936.84;4970291;28;20086;-70
2022/07/30 05:05:35;;;;;;;1.42;1.00;;;;;;;20.77;84.67;100930.69;4969209;28;20488;-70
2022/07/30 05:08:02;;;;;;;1.38;1.20;;;;;;;20.90;84.33;100936.38;4970113;28;20412;-70
2022/07/30 05:10:28;;;;;;;3.80;1.00;;;;;;;20.99;83.57;100944.81;4978243;28;20034;-70
2022/07/30 05:12:54;;;;;;;1.40;0.93;;;;;;;21.00;83.31;100935.41;4955304;28;20439;-71
2022/07/30 05:15:22;;;;;;;1.75;1.15;;;;;;;20.98;83.64;100938.53;4969048;28;20496;-71
2022/07/30 05:17:49;;;;;;;4.43;1.10;;;;;;;21.02;83.53;100939.28;4969840;28;20027;-70
2022/07/30 05:20:15;;;;;;;1.75;1.02;;;;;;;21.07;83.13;100938.03;4972251;28;20039;-70
2022/07/30 05:23:01;;;;;;;1.30;1.00;;;;;;;21.11;82.79;100931.31;4974204;28;20515;-70
2022/07/30 05:25:27;;;;;;;2.95;1.10;;;;;;;21.17;82.28;100928.88;4987598;28;20027;-69
2022/07/30 05:27:59;;;;;;;1.42;0.90;;;;;;;21.09;82.56;100930.97;4982427;28;20053;-70
2022/07/30 05:30:25;;;;;;;3.50;1.40;;;;;;;21.15;82.52;100936.72;4968814;28;20388;-69
2022/07/30 05:32:52;;;;;;;1.90;0.95;;;;;;;21.24;82.59;100939.69;4969677;28;20039;-70
2022/07/30 05:35:18;;;;;;;1.48;0.93;;;;;;;21.31;81.98;100937.56;4984698;28;20518;-71
2022/07/30 05:37:44;;;;;;;3.20;0.90;;;;;;;21.44;81.61;100943.22;4972685;28;20398;-70
2022/07/30 05:40:11;;;;;;;2.58;1.13;;;;;;;21.45;81.51;100951.00;4972487;28;20027;-70
2022/07/30 05:43:09;;;;;;;0.90;0.90;;;;;;;21.58;81.45;100953.13;4972781;28;20045;-70
2022/07/30 05:45:36;;;;;;;0.80;0.80;;;;;;;21.75;80.83;100955.53;4968249;28;20527;-70
2022/07/30 05:48:02;;;;;;;1.48;0.95;;;;;;;21.88;80.51;100956.44;4969488;28;20035;-70
2022/07/30 05:50:28;;;;;;;1.42;0.80;;;;;;;22.03;79.57;100956.91;4969151;28;20024;-70
2022/07/30 05:52:54;;;;;;;2.53;1.05;;;;;;;22.08;78.24;100954.44;4969224;28;20043;-69
2022/07/30 05:55:40;;;;;;;1.50;0.88;;;;;;;22.15;77.92;100953.50;4971553;28;20504;-70
2022/07/30 05:58:28;;;;;;;0.50;0.50;;;;;;;22.20;77.08;100955.75;4973416;28;20046;-70
2022/07/30 06:00:54;;;;;;;1.10;0.95;;;;;;;22.11;76.84;100961.03;4988600;28;20022;-70
2022/07/30 06:03:21;;;;;;;2.45;1.00;;;;;;;22.13;76.59;100958.63;4976399;28;20499;-70
2022/07/30 06:06:10;;;;;;;1.00;0.80;;;;;;;22.12;77.04;100959.84;4971633;28;20034;-69
2022/07/30 06:08:37;;;;;;;1.98;0.90;;;;;;;22.18;76.67;100955.41;4972135;28;20406;-70
2022/07/30 06:11:03;;;;;;;1.13;0.95;;;;;;;22.18;76.39;100960.91;4971274;28;20550;-71
2022/07/30 06:13:30;;;;;;;1.13;0.98;;;;;;;22.25;76.71;100958.75;4988346;28;20043;-70
2022/07/30 06:15:55;;;;;;;1.83;1.08;;;;;;;22.30;76.20;100958.25;4971320;28;20054;-70
2022/07/30 06:18:21;;;;;;;1.67;0.90;;;;;;;22.33;76.15;100954.66;4986498;28;20447;-70
2022/07/30 06:20:53;;;;;;;2.08;1.17;;;;;;;22.37;76.37;100954.56;4988258;28;20065;-70
2022/07/30 06:23:28;;;;;;;1.65;1.08;;;;;;;22.37;76.49;100960.06;4987818;28;20065;-70
2022/07/30 06:26:07;;;;;;;0.95;0.85;;;;;;;22.37;75.91;100957.31;4984126;28;20522;-71
2022/07/30 06:28:33;;;;;;;2.33;1.25;;;;;;;22.43;76.61;100959.09;4988197;28;20042;-70
2022/07/30 06:30:59;;;;;;;1.00;0.80;;;;;;;22.50;76.62;100958.19;4987840;28;20527;-70
2022/07/30 06:33:27;;;;;;;4.97;1.25;;;;;;;22.50;76.02;100963.66;4987460;28;20030;-69
2022/07/30 06:35:53;;;;;;;1.08;0.80;;;;;;;22.52;74.89;100963.25;4980482;28;20518;-71
2022/07/30 06:38:22;;;;;;;1.30;1.10;;;;;;;22.45;75.23;100964.94;4952176;28;20534;-71
2022/07/30 06:41:04;;;;;;;7.20;1.20;;;;;;;22.48;75.20;100968.03;4968403;28;20032;-71
2022/07/30 06:43:49;;;;;;;1.83;1.00;;;;;;;22.45;75.83;100962.19;4974995;28;20043;-70
2022/07/30 06:46:34;;;;;;;1.50;1.27;;;;;;;22.25;75.96;100966.22;4952807;28;20132;-70
2022/07/30 06:48:59;;;;;;;0.90;0.80;;;;;;;22.36;76.40;100977.72;4984541;28;20567;-71
2022/07/30 06:51:25;;;;;;;0.95;0.80;;;;;;;22.43;77.13;100974.81;4967767;28;20031;-70
2022/07/30 06:53:50;;;;;;;1.30;1.05;;;;;;;22.51;76.38;100986.41;4971633;28;20035;-71
2022/07/30 06:56:36;;;;;;;1.15;0.82;;;;;;;22.53;77.09;100984.78;4971916;28;20519;-70
2022/07/30 06:59:04;;;;;;;2.40;1.17;;;;;;;22.60;76.75;100981.13;4987695;28;20463;-70
2022/07/30 07:01:49;;;;;;;1.95;0.90;;;;;;;22.58;76.02;100973.31;4972196;28;20049;-69
2022/07/30 07:04:16;;;;;;;3.78;1.33;;;;;;;22.69;76.52;100986.78;4971436;28;20089;-70
2022/07/30 07:06:42;;;;;;;1.55;1.00;;;;;;;22.35;74.18;100981.69;4986667;28;20104;-70
2022/07/30 07:09:13;;;;;;;1.60;1.10;;;;;;;22.52;74.52;100982.47;4987077;28;20039;-69
2022/07/30 07:11:46;;;;;;;1.98;1.20;;;;;;;22.70;74.94;100975.38;4972095;28;20039;-70
2022/07/30 07:14:16;;;;;;;0.82;0.80;;;;;;;22.61;74.42;100983.44;4968097;28;20043;-69
2022/07/30 07:16:42;;;;;;;4.80;0.98;;;;;;;22.78;75.16;100976.00;4967012;28;20035;-70
2022/07/30 07:19:26;;;;;;;2.13;0.90;;;;;;;22.86;74.98;100974.63;4964482;28;20054;-70
2022/07/30 07:21:52;;;;;;;1.88;1.23;;;;;;;22.97;74.67;100975.13;4971012;28;20035;-70
2022/07/30 07:24:18;;;;;;;1.50;0.93;;;;;;;22.98;74.10;100971.94;4970830;28;20062;-71
2022/07/30 07:26:52;;;;;;;1.48;1.27;;;;;;;22.82;73.86;100977.44;4969976;28;20157;-71
2022/07/30 07:29:18;;;;;;;1.27;1.13;;;;;;;22.95;74.40;100975.53;4971444;28;20642;-71
2022/07/30 07:31:44;;;;;;;1.60;1.10;;;;;;;23.01;72.54;100971.06;4971788;28;20055;-70
2022/07/30 07:34:10;;;;;;;0.98;0.80;;;;;;;23.02;72.89;100978.09;4983389;28;20034;-70
2022/07/30 07:36:36;;;;;;;1.08;0.98;;;;;;;23.08;72.82;100975.59;4985802;28;20465;-71
2022/07/30 07:39:08;;;;;;;1.67;1.23;;;;;;;23.23;72.98;100969.31;4972231;28;20106;-70
2022/07/30 07:41:37;;;;;;;1.45;1.15;;;;;;;23.36;71.60;100965.88;4986551;28;20492;-71
2022/07/30 07:44:04;;;;;;;1.17;1.08;;;;;;;23.44;72.33;100975.47;4987144;28;20035;-71
2022/07/30 07:46:32;;;;;;;2.00;1.10;;;;;;;23.57;72.44;100970.78;4977803;28;20495;-71
2022/07/30 07:48:59;;;;;;;2.28;1.05;;;;;;;23.64;70.65;100974.09;4970736;28;20118;-70
2022/07/30 07:51:31;;;;;;;1.15;1.05;;;;;;;23.32;69.96;100967.94;4970436;28;20046;-69
2022/07/30 07:53:57;;;;;;;2.70;1.08;;;;;;;23.57;71.35;100977.06;4972458;28;20061;-69
2022/07/30 07:56:23;;;;;;;2.30;1.30;;;;;;;23.81;70.50;100969.31;4973119;28;20141;-70
2022/07/30 07:58:52;;;;;;;1.10;1.00;;;;;;;24.04;69.44;100974.56;4974335;28;20049;-70
2022/07/30 08:01:20;;;;;;;1.23;0.90;;;;;;;24.18;70.42;100979.63;4974647;28;20041;-71
2022/07/30 08:04:04;;;;;;;2.20;1.42;;;;;;;24.21;68.21;100981.50;4975407;28;20097;-70
2022/07/30 08:06:48;;;;;;;1.42;0.85;;;;;;;24.34;68.58;100976.00;4974701;28;20132;-70
2022/07/30 08:09:32;;;;;;;3.22;1.20;;;;;;;24.41;69.88;100978.53;4975872;28;20053;-70
2022/07/30 08:12:24;;;;;;;;;;;;;;;24.48;69.42;100986.56;4975794;28;20070;-70
2022/07/30 08:15:09;;;;;;;1.92;0.88;;;;;;;24.60;68.39;100981.03;4979693;28;19976;-69
2022/07/30 08:17:42;;;;;;;1.33;1.13;;;;;;;24.48;68.61;100984.59;5012206;23;20067;-67
2022/07/30 08:20:15;;;;;;;2.25;1.35;;;;;;;24.60;68.78;100983.78;5026200;28;20029;-67
2022/07/30 08:22:41;;;;;;;1.40;0.98;;;;;;;24.77;68.57;100979.75;5032940;28;20535;-68
2022/07/30 08:25:07;;;;;;;1.63;1.20;;;;;;;24.98;69.03;100986.53;5015442;28;20065;-67
2022/07/30 08:27:34;;;;;;;2.10;1.05;;;;;;;25.20;67.16;100984.59;5019351;28;20395;-69
2022/07/30 08:30:08;;;;;;;1.20;1.00;;;;;;;25.42;66.27;100987.38;5009999;28;20402;-68
2022/07/30 08:32:34;;;;;;;1.48;1.10;;;;;;;25.76;64.46;100985.34;4993646;28;20040;-68
2022/07/30 08:35:00;;;;;;;2.17;1.10;;;;;;;26.00;63.71;100982.88;5006577;28;20025;-68
2022/07/30 08:37:26;;;;;;;1.20;1.10;;;;;;;26.23;61.60;100989.94;5009058;28;20038;-68
2022/07/30 08:39:52;;;;;;;2.00;1.05;;;;;;;25.93;60.21;100988.66;5009572;28;20058;-68
2022/07/30 08:42:18;;;;;;;1.95;1.23;;;;;;;26.15;61.28;100985.91;5009084;28;20065;-68
2022/07/30 08:44:45;;;;;;;3.67;1.23;;;;;;;26.28;61.56;100984.59;4993905;28;20049;-69
2022/07/30 08:47:16;;;;;;;1.67;1.30;;;;;;;26.47;60.39;100991.72;5009336;28;20050;-68
2022/07/30 08:50:11;;;;;;;2.10;1.27;;;;;;;26.81;60.29;100990.75;4993997;28;20097;-68
2022/07/30 08:52:54;;;;;;;4.53;1.80;;;;;;;27.16;58.87;100985.75;5009553;28;20476;-68
2022/07/30 08:55:24;;;;;;;3.80;1.20;;;;;;;27.55;58.56;100990.38;4992100;28;20297;-68
2022/07/30 08:57:50;;;;;;;0.75;0.75;;;;;;;27.89;55.06;100994.78;5009147;28;20069;-68
2022/07/30 09:00:17;;;;;;;1.38;0.88;;;;;;;28.19;54.08;100985.47;4993967;28;20080;-68
2022/07/30 09:02:43;;;;;;;1.42;1.20;;;;;;;28.47;54.24;100993.19;5009534;28;20049;-68
2022/07/30 09:05:10;;;;;;;1.30;1.05;;;;;;;28.78;52.90;100994.94;5010544;28;20076;-68
2022/07/30 09:07:37;;;;;;;1.10;1.00;;;;;;;28.95;51.55;100990.50;5012423;28;20040;-68
2022/07/30 09:10:07;;;;;;;1.40;1.00;;;;;;;29.22;50.65;101004.19;5011961;28;20452;-68
2022/07/30 09:12:37;;;;;;;0.85;0.70;;;;;;;29.32;50.45;101008.44;5004194;28;20038;-68
2022/07/30 09:15:11;;;;;;;1.20;1.10;;;;;;;29.34;50.33;101008.75;5008111;28;20415;-68
2022/07/30 09:17:50;;;;;;;2.40;0.95;;;;;;;29.48;49.99;101007.97;4992523;28;20069;-68
2022/07/30 09:20:28;;;;;;;5.28;1.50;;;;;;;29.56;49.59;101011.94;4994384;28;20148;-68
2022/07/30 09:22:57;;;;;;;1.92;1.17;;;;;;;29.59;49.94;101010.22;5008780;28;20072;-68
2022/07/30 09:25:39;;;;;;;3.88;1.00;;;;;;;29.78;50.16;101011.59;4992485;28;20042;-68
2022/07/30 09:28:30;;;;;;;1.40;0.95;;;;;;;29.99;49.69;101014.00;4994844;28;20102;-69
2022/07/30 09:31:18;;;;;;;1.65;1.25;;;;;;;30.16;48.74;101020.59;5012794;28;20048;-68
2022/07/30 09:34:03;;;;;;;1.45;1.13;;;;;;;30.19;48.77;101014.09;5012961;28;20080;-68
2022/07/30 09:36:47;;;;;;;1.20;0.90;;;;;;;30.29;48.93;101019.56;5012728;28;20129;-68
2022/07/30 09:39:34;;;;;;;1.00;0.85;;;;;;;30.26;49.52;101019.25;4996226;28;20076;-68
2022/07/30 09:42:25;;;;;;;1.00;0.75;;;;;;;30.16;48.87;101026.16;4993620;28;20038;-68
2022/07/30 09:45:09;;;;;;;1.45;1.10;;;;;;;30.51;47.91;101022.69;5007285;28;20511;-68
2022/07/30 09:47:41;;;;;;;2.13;1.02;;;;;;;30.59;47.36;101024.59;5008134;28;20031;-68
2022/07/30 09:50:09;;;;;;;1.27;0.90;;;;;;;30.64;47.82;101029.44;4993020;28;20495;-68
2022/07/30 09:52:37;;;;;;;2.70;1.17;;;;;;;30.84;47.82;101023.19;4992057;28;20041;-68
2022/07/30 09:55:04;;;;;;;1.27;0.82;;;;;;;31.06;47.06;101034.63;4993276;28;20041;-68
2022/07/30 09:57:30;;;;;;;1.00;0.90;;;;;;;31.21;47.59;101040.88;5007854;28;20058;-68
2022/07/30 10:00:21;;;;;;;2.20;1.10;;;;;;;31.32;45.89;101041.00;5008236;28;20165;-68
2022/07/30 10:02:54;;;;;;;1.38;0.98;;;;;;;31.44;45.68;101030.78;4991551;28;20135;-68
2022/07/30 10:05:49;;;;;;;1.40;0.93;;;;;;;31.26;45.59;101031.84;4992079;28;20129;-68
2022/07/30 10:08:15;;;;;;;2.15;1.10;;;;;;;31.09;45.44;101028.06;4991682;28;20041;-68
2022/07/30 10:10:41;;;;;;;1.65;1.30;;;;;;;30.79;46.40;101032.19;4991552;28;20076;-68
2022/07/30 10:13:08;;;;;;;1.35;1.00;;;;;;;30.84;47.39;101031.53;4991449;28;20099;-68
2022/07/30 10:15:35;;;;;;;1.38;1.27;;;;;;;30.78;46.34;101031.44;4974567;28;20042;-68
2022/07/30 10:18:04;;;;;;;1.65;1.20;;;;;;;30.65;46.52;101038.56;4990973;28;20042;-69
2022/07/30 10:21:00;;;;;;;1.58;1.00;;;;;;;30.23;47.36;101027.78;4997201;28;20056;-68
2022/07/30 10:23:31;;;;;;;1.13;1.02;;;;;;;29.96;47.45;101028.88;5011203;28;20030;-68
2022/07/30 10:26:21;;;;;;;3.40;1.30;;;;;;;29.70;47.80;101033.41;4991825;28;20090;-68
2022/07/30 10:29:19;;;;;;;1.08;0.98;;;;;;;29.39;48.28;101030.28;5003000;28;20078;-68
2022/07/30 10:31:46;;;;;;;2.17;1.55;;;;;;;29.20;48.03;101023.34;5007442;28;20514;-68
2022/07/30 10:34:13;;;;;;;3.58;1.50;;;;;;;29.05;48.49;101031.59;4999509;28;20033;-68
2022/07/30 10:36:51;;;;;;;2.75;1.27;;;;;;;28.87;48.23;101030.94;5010928;28;20030;-68
2022/07/30 10:39:23;;;;;;;1.55;1.30;;;;;;;28.74;49.04;101022.84;5011636;28;20095;-68
2022/07/30 10:42:16;;;;;;;1.38;1.23;;;;;;;28.51;49.14;101026.31;5012103;28;20041;-68
2022/07/30 10:44:47;;;;;;;1.98;1.42;;;;;;;28.45;49.39;101031.72;5026486;28;20095;-68
2022/07/30 10:47:17;;;;;;;1.73;1.50;;;;;;;28.39;49.62;101033.59;5011396;28;20038;-68
2022/07/30 10:50:04;;;;;;;2.03;1.27;;;;;;;28.22;49.91;101026.88;5011735;28;20041;-68
2022/07/30 10:52:53;;;;;;;1.40;1.27;;;;;;;28.00;51.46;101034.66;5012046;28;20045;-68
2022/07/30 10:55:22;;;;;;;2.90;1.98;;;;;;;27.80;59.95;101037.09;5026390;28;20129;-68
2022/07/30 10:57:59;;;;;;;5.18;1.73;;;;;;;27.37;68.83;101031.91;4992458;28;20110;-68
2022/07/30 11:00:25;;;;;;;1.83;1.38;;;;;;;27.13;70.96;101028.16;4992254;28;20630;-68
2022/07/30 11:03:25;;;;;;;2.45;1.65;;;;;;;26.85;72.22;101041.16;4992125;28;20109;-68
2022/07/30 11:06:13;;;;;;;3.30;1.77;;;;;;;26.30;75.45;101034.63;4991940;28;20399;-68
2022/07/30 11:08:41;;;;;;;4.53;1.85;;;;;;;26.11;77.99;101037.75;4985503;28;20054;-68
2022/07/30 11:11:21;;;;;;;3.00;2.00;;;;;;;26.01;78.79;101039.66;4991897;28;20041;-68
2022/07/30 11:13:56;;;;;;;4.85;2.42;;;;;;;25.86;79.55;101035.88;5006860;28;20125;-68
2022/07/30 11:16:43;;;;;;;3.95;2.25;;;;;;;25.85;79.54;101034.31;5005894;28;20046;-68
2022/07/30 11:19:17;;;;;;;4.60;2.40;;;;;;;25.73;80.15;101044.22;4985047;28;20046;-68
2022/07/30 11:21:45;;;;;;;7.47;2.22;;;;;;;25.76;79.78;101045.31;5007705;28;20026;-68
2022/07/30 11:24:46;;;;;;;3.85;2.25;;;;;;;25.43;82.29;101033.88;5010294;28;20033;-68
2022/07/30 11:27:45;;;;;;;4.93;2.50;;;;;;;25.38;83.43;101031.63;5026294;28;20427;-68
2022/07/30 11:30:14;;;;;;;5.05;2.95;;;;;;;25.42;82.89;101034.28;5008283;28;20053;-68
2022/07/30 11:32:44;;;;;;;4.78;2.45;;;;;;;25.51;81.83;101031.63;4995419;28;20045;-68
2022/07/30 11:35:17;;;;;;;4.47;2.40;;;;;;;25.52;81.96;101030.41;5005976;28;20045;-68
2022/07/30 11:38:01;;;;;;;7.25;2.55;;;;;;;25.59;81.60;101027.41;5011258;28;20520;-68
2022/07/30 11:40:39;;;;;;;4.18;2.45;;;;;;;25.63;81.60;101028.03;5010563;28;20073;-68
2022/07/30 11:43:24;;;;;;;3.83;2.03;;;;;;;25.66;82.09;101029.91;5011069;28;20075;-68
2022/07/30 11:46:08;;;;;;;4.25;2.45;;;;;;;25.78;81.56;101029.81;5010202;28;20034;-68